Time;durP1;ratioP1;P1;durP2;ratioP2;P2;SDS_P1;SDS_P2;PMS_P1;PMS_P2;Temp;Humidity;BMP_temperature;BMP_pressure;BME280_temperature;BME280_humidity;BME280_pressure;Samples;Min_cycle;Max_cycle;Signal;HPM_P1;HPM_P2
2021/12/09 00:01:40;;;;;;;6.75;2.40;;;;;;;11.14;72.72;101495.41;5048981;28;20700;-67
2021/12/09 00:04:12;;;;;;;11.15;2.80;;;;;;;11.16;72.35;101496.31;5050406;28;20045;-67
2021/12/09 00:06:43;;;;;;;9.23;1.88;;;;;;;11.13;72.20;101496.28;5045919;28;20049;-67
2021/12/09 00:09:13;;;;;;;11.77;1.67;;;;;;;11.03;72.48;101495.97;5049930;28;20044;-66
2021/12/09 00:11:46;;;;;;;8.68;1.45;;;;;;;11.01;72.58;101503.88;5031015;28;20045;-66
2021/12/09 00:14:16;;;;;;;19.03;8.40;;;;;;;10.95;72.57;101509.00;5063837;28;20062;-67
2021/12/09 00:16:44;;;;;;;9.05;2.13;;;;;;;10.91;72.46;101506.22;5049930;28;20037;-67
2021/12/09 00:19:12;;;;;;;6.85;1.80;;;;;;;10.96;72.17;101504.63;5049772;28;20051;-67
2021/12/09 00:21:41;;;;;;;8.82;1.70;;;;;;;10.98;72.13;101506.44;5029797;28;20099;-66
2021/12/09 00:24:09;;;;;;;6.72;1.70;;;;;;;10.90;71.68;101513.25;5048694;28;20079;-67
2021/12/09 00:26:38;;;;;;;9.02;2.08;;;;;;;10.83;72.10;101513.94;5048257;28;20489;-67
2021/12/09 00:29:06;;;;;;;9.98;1.92;;;;;;;10.87;71.92;101509.66;5049454;28;20060;-67
2021/12/09 00:31:34;;;;;;;13.95;3.95;;;;;;;10.86;71.61;101507.88;5048143;28;20083;-67
2021/12/09 00:34:02;;;;;;;10.93;4.28;;;;;;;10.88;71.50;101495.59;5047188;28;20052;-67
2021/12/09 00:36:35;;;;;;;11.02;4.22;;;;;;;10.91;71.27;101495.66;5048783;28;20073;-67
2021/12/09 00:39:07;;;;;;;12.48;2.97;;;;;;;10.93;71.22;101494.88;5048298;28;20053;-67
2021/12/09 00:41:34;;;;;;;7.05;1.80;;;;;;;10.90;71.07;101494.78;5046762;28;20405;-66
2021/12/09 00:44:03;;;;;;;9.50;2.70;;;;;;;10.86;71.23;101494.66;5048735;28;20064;-67
2021/12/09 00:46:31;;;;;;;9.63;1.30;;;;;;;10.78;71.28;101500.63;5047704;28;20040;-67
2021/12/09 00:48:59;;;;;;;5.10;1.23;;;;;;;10.73;71.34;101506.66;5048195;28;20068;-67
2021/12/09 00:51:26;;;;;;;8.23;1.58;;;;;;;10.71;71.44;101506.59;5049589;28;20526;-67
2021/12/09 00:53:54;;;;;;;7.55;1.23;;;;;;;10.69;71.32;101507.44;5048918;28;20163;-67
2021/12/09 00:56:24;;;;;;;6.88;1.48;;;;;;;10.66;71.20;101523.19;5030981;28;20553;-67
2021/12/09 00:58:53;;;;;;;7.28;2.25;;;;;;;10.63;71.11;101515.19;5048912;28;20441;-67
2021/12/09 01:01:21;;;;;;;5.05;1.05;;;;;;;10.59;71.32;101519.47;5047695;28;20120;-66
2021/12/09 01:03:49;;;;;;;6.50;1.48;;;;;;;10.56;71.23;101521.16;5048668;28;20115;-67
2021/12/09 01:06:17;;;;;;;18.40;8.70;;;;;;;10.48;71.15;101526.22;5049190;28;20619;-67
2021/12/09 01:08:45;;;;;;;8.93;3.63;;;;;;;10.42;71.41;101522.50;5051618;28;20071;-66
2021/12/09 01:11:14;;;;;;;7.53;2.10;;;;;;;10.37;71.63;101520.59;5047718;28;20316;-67
2021/12/09 01:13:44;;;;;;;8.88;2.33;;;;;;;10.36;71.37;101518.84;5064086;28;20049;-66
2021/12/09 01:16:12;;;;;;;6.90;2.20;;;;;;;10.30;71.00;101520.41;5048125;28;20048;-66
2021/12/09 01:18:41;;;;;;;7.60;2.10;;;;;;;10.27;71.03;101521.22;5048654;28;20117;-67
2021/12/09 01:21:09;;;;;;;10.98;2.30;;;;;;;10.19;70.74;101535.03;5048275;28;20086;-67
2021/12/09 01:23:37;;;;;;;4.18;1.55;;;;;;;10.20;70.85;101523.63;5047488;28;20091;-67
2021/12/09 01:26:06;;;;;;;9.07;1.83;;;;;;;10.23;70.47;101529.00;5065552;28;20557;-67
2021/12/09 01:28:43;;;;;;;10.57;3.20;;;;;;;10.24;70.36;101531.66;5068241;28;20129;-67
2021/12/09 01:31:19;;;;;;;15.05;6.50;;;;;;;10.20;70.40;101534.19;5048782;28;20067;-67
2021/12/09 01:33:50;;;;;;;13.35;4.07;;;;;;;10.18;70.25;101538.50;5049031;28;20053;-66
2021/12/09 01:36:18;;;;;;;10.00;3.38;;;;;;;10.20;70.17;101542.09;5048111;28;20067;-66
2021/12/09 01:38:46;;;;;;;9.48;2.10;;;;;;;10.16;70.09;101527.00;5032564;28;20049;-66
2021/12/09 01:41:14;;;;;;;6.45;1.50;;;;;;;10.20;69.94;101535.06;5059837;28;20056;-67
2021/12/09 01:43:41;;;;;;;9.27;3.03;;;;;;;10.22;69.75;101535.13;5047096;28;20099;-67
2021/12/09 01:46:13;;;;;;;8.30;2.20;;;;;;;10.23;69.84;101529.91;5047732;28;20505;-67
2021/12/09 01:48:42;;;;;;;8.82;1.90;;;;;;;10.23;69.75;101531.66;5048681;28;20052;-67
2021/12/09 01:51:11;;;;;;;10.10;2.03;;;;;;;10.22;69.75;101527.22;5048096;28;20087;-67
2021/12/09 01:53:39;;;;;;;30.55;15.85;;;;;;;10.14;69.61;101528.69;5048814;28;20060;-67
2021/12/09 01:56:10;;;;;;;18.25;6.15;;;;;;;9.95;69.93;101529.88;5046981;28;20123;-67
2021/12/09 01:58:38;;;;;;;12.15;5.30;;;;;;;9.79;70.09;101520.59;5047108;28;20413;-67
2021/12/09 02:01:07;;;;;;;8.13;1.70;;;;;;;9.77;70.35;101521.41;5047585;28;20045;-67
2021/12/09 02:03:36;;;;;;;8.25;1.60;;;;;;;9.88;70.38;101517.34;5047378;28;20603;-67
2021/12/09 02:06:05;;;;;;;6.68;3.60;;;;;;;9.97;69.92;101517.66;5048382;28;20087;-67
2021/12/09 02:08:32;;;;;;;10.40;2.97;;;;;;;10.00;69.59;101530.91;5030583;28;20651;-67
2021/12/09 02:11:00;;;;;;;6.32;2.20;;;;;;;9.99;69.43;101523.84;5048444;28;20033;-67
2021/12/09 02:13:28;;;;;;;8.95;2.00;;;;;;;10.00;69.41;101520.34;5048108;28;20037;-67
2021/12/09 02:15:56;;;;;;;13.13;2.05;;;;;;;10.01;69.46;101524.78;5047540;28;20045;-67
2021/12/09 02:18:25;;;;;;;6.80;1.92;;;;;;;9.98;69.50;101525.59;5048144;28;20045;-67
2021/12/09 02:21:10;;;;;;;7.82;2.13;;;;;;;9.99;69.60;101524.75;5047596;28;20053;-67
2021/12/09 02:23:39;;;;;;;11.50;2.00;;;;;;;9.98;69.46;101528.22;5047068;28;20072;-67
2021/12/09 02:26:06;;;;;;;8.63;1.88;;;;;;;9.98;69.28;101524.69;5066063;28;20119;-67
2021/12/09 02:28:34;;;;;;;11.40;2.50;;;;;;;9.99;69.25;101539.66;5066151;28;20134;-67
2021/12/09 02:31:02;;;;;;;11.70;3.70;;;;;;;9.83;69.00;101537.44;5066967;28;20493;-67
2021/12/09 02:33:30;;;;;;;6.43;1.40;;;;;;;9.74;69.17;101545.03;5068119;28;20036;-66
2021/12/09 02:35:58;;;;;;;8.73;1.85;;;;;;;9.75;69.30;101544.19;5066625;28;20629;-67
2021/12/09 02:38:27;;;;;;;8.75;1.30;;;;;;;9.77;69.13;101545.16;5068493;28;20033;-67
2021/12/09 02:40:56;;;;;;;7.65;1.83;;;;;;;9.83;69.02;101538.31;5050206;28;20041;-67
2021/12/09 02:43:27;;;;;;;7.30;1.88;;;;;;;9.88;68.57;101546.38;5050049;28;20125;-67
2021/12/09 02:45:56;;;;;;;7.00;1.77;;;;;;;9.84;68.63;101549.78;5066055;28;20446;-67
2021/12/09 02:48:25;;;;;;;6.13;1.60;;;;;;;9.84;68.63;101541.84;5067944;28;20714;-67
2021/12/09 02:50:53;;;;;;;6.13;1.80;;;;;;;9.81;68.65;101554.94;5068387;28;20041;-67
2021/12/09 02:53:21;;;;;;;5.57;1.30;;;;;;;9.73;68.86;101556.41;5066981;28;20047;-68
2021/12/09 02:55:50;;;;;;;5.32;1.15;;;;;;;9.66;68.94;101555.34;5066519;28;20044;-66
2021/12/09 02:58:18;;;;;;;7.40;1.35;;;;;;;9.64;69.26;101556.16;5069688;28;20040;-67
2021/12/09 03:00:56;;;;;;;5.53;1.23;;;;;;;9.67;69.28;101565.03;5069966;28;20068;-66
2021/12/09 03:03:24;;;;;;;3.55;1.20;;;;;;;9.62;69.91;101564.00;5067610;28;20043;-67
2021/12/09 03:05:54;;;;;;;7.47;1.77;;;;;;;9.62;70.03;101561.38;5072521;28;20178;-67
2021/12/09 03:08:33;;;;;;;7.20;1.52;;;;;;;9.59;70.03;101562.16;5080128;28;20039;-67
2021/12/09 03:11:04;;;;;;;4.03;1.13;;;;;;;9.57;70.01;101563.88;5071713;28;20048;-67
2021/12/09 03:13:32;;;;;;;9.55;3.10;;;;;;;9.53;70.11;101568.97;5070620;28;20037;-67
2021/12/09 03:16:00;;;;;;;9.80;3.85;;;;;;;9.58;69.91;101565.63;5069154;28;20041;-67
2021/12/09 03:18:28;;;;;;;8.63;4.20;;;;;;;9.60;69.71;101570.94;5071032;28;20040;-67
2021/12/09 03:20:56;;;;;;;6.18;1.52;;;;;;;9.63;69.48;101572.81;5050441;28;20071;-67
2021/12/09 03:23:26;;;;;;;5.93;1.40;;;;;;;9.64;69.37;101569.34;5049302;28;20041;-67
2021/12/09 03:25:53;;;;;;;7.93;1.63;;;;;;;9.61;69.30;101572.75;5051190;28;20209;-67
2021/12/09 03:28:22;;;;;;;6.80;1.52;;;;;;;9.60;69.33;101561.31;5050668;28;20103;-67
2021/12/09 03:30:50;;;;;;;7.32;1.23;;;;;;;9.58;69.44;101563.00;5050728;28;20045;-68
2021/12/09 03:33:18;;;;;;;7.72;1.10;;;;;;;9.53;69.69;101576.88;5050854;28;20124;-67
2021/12/09 03:35:45;;;;;;;6.15;1.30;;;;;;;9.50;69.78;101576.78;5058832;28;20174;-66
2021/12/09 03:38:13;;;;;;;5.03;1.38;;;;;;;9.43;69.85;101582.69;5070087;28;20048;-67
2021/12/09 03:40:40;;;;;;;7.45;1.42;;;;;;;9.41;69.99;101593.19;5086424;28;20068;-67
2021/12/09 03:43:09;;;;;;;7.78;3.08;;;;;;;9.37;69.85;101588.66;5071048;28;20128;-67
2021/12/09 03:45:38;;;;;;;8.10;1.80;;;;;;;9.40;69.36;101586.13;5068143;28;20037;-67
2021/12/09 03:48:05;;;;;;;9.40;2.53;;;;;;;9.43;68.97;101583.59;5070420;28;20450;-67
2021/12/09 03:50:33;;;;;;;8.25;1.60;;;;;;;9.40;68.72;101588.75;5071008;28;20091;-67
2021/12/09 03:53:01;;;;;;;4.07;1.00;;;;;;;9.36;68.47;101594.78;5068557;28;20118;-67
2021/12/09 03:55:28;;;;;;;5.47;0.95;;;;;;;9.37;68.64;101599.19;5086148;28;20044;-67
2021/12/09 03:57:57;;;;;;;5.57;1.98;;;;;;;9.36;68.64;101599.13;5070398;28;20036;-67
2021/12/09 04:00:28;;;;;;;4.80;1.00;;;;;;;9.32;68.91;101598.13;5070171;28;20198;-67
2021/12/09 04:02:57;;;;;;;5.15;1.50;;;;;;;9.34;68.81;101599.09;5082338;28;20119;-67
2021/12/09 04:05:25;;;;;;;4.47;0.90;;;;;;;9.37;68.75;101593.03;5068904;28;20033;-66
2021/12/09 04:07:53;;;;;;;6.55;0.95;;;;;;;9.36;68.92;101601.78;5070463;28;20089;-67
2021/12/09 04:10:21;;;;;;;8.88;1.67;;;;;;;9.33;68.85;101605.19;5070034;28;20090;-68
2021/12/09 04:12:49;;;;;;;6.47;1.20;;;;;;;9.34;68.45;101609.63;5070623;28;20036;-67
2021/12/09 04:15:16;;;;;;;7.18;1.20;;;;;;;9.36;68.04;101604.41;5069868;28;20090;-66
2021/12/09 04:17:44;;;;;;;6.95;1.10;;;;;;;9.35;67.94;101607.88;5069542;28;20059;-67
2021/12/09 04:20:14;;;;;;;6.30;1.00;;;;;;;9.39;67.82;101605.41;5069927;28;20075;-67
2021/12/09 04:22:48;;;;;;;6.30;1.25;;;;;;;9.37;67.58;101604.47;5069870;28;20575;-66
2021/12/09 04:25:16;;;;;;;5.65;1.17;;;;;;;9.29;67.61;101608.56;5069732;28;20147;-67
2021/12/09 04:27:44;;;;;;;5.95;1.20;;;;;;;9.29;67.54;101608.56;5068028;28;20055;-67
2021/12/09 04:30:13;;;;;;;10.52;1.73;;;;;;;9.33;67.96;101606.94;5068775;28;20493;-66
2021/12/09 04:32:41;;;;;;;7.28;1.30;;;;;;;9.33;67.97;101617.47;5068125;28;20048;-67
2021/12/09 04:35:11;;;;;;;4.13;1.20;;;;;;;9.30;67.88;101607.75;5069374;28;20536;-66
2021/12/09 04:37:40;;;;;;;6.75;1.30;;;;;;;9.30;67.69;101607.75;5068773;28;20090;-66
2021/12/09 04:40:11;;;;;;;4.82;1.05;;;;;;;9.35;67.39;101608.78;5065609;28;20036;-66
2021/12/09 04:42:40;;;;;;;7.07;1.40;;;;;;;9.36;67.01;101599.13;5067865;28;20499;-67
2021/12/09 04:45:09;;;;;;;12.73;7.35;;;;;;;9.27;66.84;101604.97;5049025;28;20126;-67
2021/12/09 04:47:37;;;;;;;12.35;9.98;;;;;;;9.12;66.90;101599.22;5060275;28;20032;-66
2021/12/09 04:50:07;;;;;;;8.13;3.85;;;;;;;8.99;66.65;101605.75;5066633;28;20044;-67
2021/12/09 04:52:34;;;;;;;3.92;1.40;;;;;;;8.88;66.56;101607.13;5069668;28;20078;-67
2021/12/09 04:55:04;;;;;;;3.95;1.42;;;;;;;8.84;66.71;101610.50;5068799;28;20523;-67
2021/12/09 04:57:32;;;;;;;4.20;1.58;;;;;;;8.69;66.83;101605.56;5069600;28;20527;-67
2021/12/09 05:00:00;;;;;;;5.57;1.40;;;;;;;8.74;67.39;101601.34;5067580;28;20063;-67
2021/12/09 05:02:37;;;;;;;6.50;1.58;;;;;;;8.97;67.12;101606.56;5068606;28;20048;-67
2021/12/09 05:05:06;;;;;;;7.63;1.33;;;;;;;9.17;66.68;101610.78;5069131;28;20068;-67
2021/12/09 05:07:34;;;;;;;5.82;1.23;;;;;;;9.33;66.57;101609.56;5067544;28;20040;-67
2021/12/09 05:10:05;;;;;;;9.35;1.52;;;;;;;9.45;66.19;101608.25;5068359;28;20063;-67
2021/12/09 05:12:47;;;;;;;4.40;1.10;;;;;;;9.50;65.89;101611.06;5067386;28;20061;-67
2021/12/09 05:15:15;;;;;;;7.47;1.25;;;;;;;9.61;66.28;101609.66;5068082;28;20036;-67
2021/12/09 05:17:43;;;;;;;6.18;1.38;;;;;;;9.69;66.46;101608.16;5070041;28;20059;-67
2021/12/09 05:20:12;;;;;;;2.80;1.10;;;;;;;9.80;66.14;101611.16;5082870;28;20037;-67
2021/12/09 05:22:40;;;;;;;3.70;0.95;;;;;;;9.88;66.54;101604.38;5068765;28;20113;-67
2021/12/09 05:25:10;;;;;;;6.25;1.30;;;;;;;10.00;66.36;101618.84;5068841;28;20127;-67
2021/12/09 05:27:38;;;;;;;2.65;0.80;;;;;;;10.06;66.00;101609.31;5066812;28;20048;-67
2021/12/09 05:30:12;;;;;;;4.65;0.90;;;;;;;10.10;65.45;101604.22;5076206;28;20065;-67
2021/12/09 05:32:38;;;;;;;3.80;0.80;;;;;;;10.11;64.82;101603.34;5079343;28;20127;-67
2021/12/09 05:35:08;;;;;;;2.92;0.50;;;;;;;10.12;64.45;101601.59;5058412;28;20135;-67
2021/12/09 05:37:36;;;;;;;6.32;0.75;;;;;;;10.12;63.76;101597.22;5068847;28;20060;-67
2021/12/09 05:40:04;;;;;;;3.47;0.65;;;;;;;10.16;63.61;101601.78;5067830;28;20047;-67
2021/12/09 05:42:33;;;;;;;3.03;0.73;;;;;;;10.20;63.42;101598.41;5067671;28;20170;-67
2021/12/09 05:45:01;;;;;;;5.25;0.82;;;;;;;10.22;63.22;101596.72;5067800;28;20437;-67
2021/12/09 05:47:31;;;;;;;2.53;0.93;;;;;;;10.28;63.24;101601.28;5068105;28;20068;-67
2021/12/09 05:49:58;;;;;;;5.43;0.73;;;;;;;10.31;63.19;101601.34;5068991;28;20048;-67
2021/12/09 05:52:26;;;;;;;3.70;0.70;;;;;;;10.36;63.19;101603.31;5069010;28;20071;-67
2021/12/09 05:54:54;;;;;;;4.88;0.73;;;;;;;10.41;63.06;101595.50;5078384;28;20044;-67
2021/12/09 05:57:21;;;;;;;4.95;1.02;;;;;;;10.44;63.32;101600.88;5076449;28;20106;-68
2021/12/09 05:59:54;;;;;;;3.95;0.55;;;;;;;10.50;63.35;101597.53;5068358;28;20056;-67
2021/12/09 06:02:21;;;;;;;8.48;1.50;;;;;;;10.56;63.30;101603.88;5067225;28;20052;-68
2021/12/09 06:04:49;;;;;;;1.63;0.55;;;;;;;10.60;63.58;101596.94;5067526;28;20044;-67
2021/12/09 06:07:17;;;;;;;2.53;0.85;;;;;;;10.65;63.79;101604.13;5083022;28;20069;-67
2021/12/09 06:09:45;;;;;;;4.32;1.30;;;;;;;10.74;64.03;101603.50;5068779;28;20040;-67
2021/12/09 06:12:13;;;;;;;4.63;0.88;;;;;;;10.95;64.67;101609.41;5067779;28;20041;-67
2021/12/09 06:14:41;;;;;;;5.30;1.30;;;;;;;11.25;65.36;101609.31;5056522;28;20550;-67
2021/12/09 06:17:10;;;;;;;3.95;0.77;;;;;;;11.53;65.33;101605.66;5066658;28;20047;-68
2021/12/09 06:19:38;;;;;;;10.70;1.63;;;;;;;11.82;65.08;101609.03;5066853;28;20044;-67
2021/12/09 06:22:07;;;;;;;2.65;1.20;;;;;;;12.03;64.90;101608.63;5067265;28;20143;-67
2021/12/09 06:24:34;;;;;;;5.55;0.50;;;;;;;12.22;64.58;101605.53;5066891;28;20118;-67
2021/12/09 06:27:03;;;;;;;7.95;0.90;;;;;;;12.45;64.73;101614.91;5081601;28;20519;-68
2021/12/09 06:29:32;;;;;;;2.08;0.40;;;;;;;12.68;64.99;101620.66;5066246;28;20047;-68
2021/12/09 06:32:00;;;;;;;3.17;0.40;;;;;;;12.95;64.80;101617.69;5050320;28;20048;-67
2021/12/09 06:34:29;;;;;;;2.83;0.40;;;;;;;13.17;64.58;101614.63;5072100;28;20105;-67
2021/12/09 06:36:57;;;;;;;8.68;0.98;;;;;;;13.41;63.93;101616.81;5085803;28;20056;-67
2021/12/09 06:39:25;;;;;;;3.50;0.90;;;;;;;13.60;63.54;101615.38;5071074;28;20040;-68
2021/12/09 06:41:53;;;;;;;4.07;0.90;;;;;;;13.78;63.59;101610.41;5071567;28;20489;-67
2021/12/09 06:44:21;;;;;;;5.35;0.82;;;;;;;13.97;63.86;101615.13;5071562;28;20041;-68
2021/12/09 06:46:49;;;;;;;4.28;0.70;;;;;;;14.17;63.78;101616.31;5070164;28;20511;-67
2021/12/09 06:49:17;;;;;;;5.03;1.10;;;;;;;14.30;63.47;101614.72;5071812;28;20045;-67
2021/12/09 06:51:46;;;;;;;3.25;0.65;;;;;;;14.47;63.72;101623.84;5071086;28;20059;-67
2021/12/09 06:54:14;;;;;;;3.25;0.68;;;;;;;14.63;63.98;101624.97;5081806;28;20607;-67
2021/12/09 06:56:42;;;;;;;9.52;1.13;;;;;;;14.81;64.12;101627.84;5078782;28;20072;-67
2021/12/09 06:59:10;;;;;;;4.18;1.02;;;;;;;14.98;63.98;101631.56;5071606;28;20102;-67
2021/12/09 07:01:38;;;;;;;3.53;0.80;;;;;;;15.11;63.60;101632.59;5069549;28;20036;-67
2021/12/09 07:04:06;;;;;;;4.63;0.63;;;;;;;15.24;63.60;101631.84;5069298;28;20040;-67
2021/12/09 07:06:33;;;;;;;5.32;1.00;;;;;;;15.36;63.72;101631.13;5069853;28;20045;-67
2021/12/09 07:09:04;;;;;;;4.03;0.93;;;;;;;15.53;63.73;101626.88;5070872;28;20037;-68
2021/12/09 07:11:33;;;;;;;6.00;0.88;;;;;;;15.70;63.62;101635.88;5070377;28;20040;-68
2021/12/09 07:14:01;;;;;;;6.03;0.90;;;;;;;15.87;64.04;101638.72;5071445;28;20051;-67
2021/12/09 07:16:29;;;;;;;8.32;1.23;;;;;;;16.04;64.33;101629.06;5070894;28;20450;-67
2021/12/09 07:18:58;;;;;;;8.68;0.90;;;;;;;16.25;64.64;101636.31;5074530;28;20044;-68
2021/12/09 07:21:26;;;;;;;10.57;1.40;;;;;;;16.41;64.41;101634.63;5069636;28;20848;-68
2021/12/09 07:23:54;;;;;;;10.10;1.23;;;;;;;16.57;64.37;101634.72;5070436;28;20506;-68
2021/12/09 07:26:24;;;;;;;9.95;1.73;;;;;;;16.77;64.38;101634.84;5071189;28;20036;-69
2021/12/09 07:28:52;;;;;;;6.47;1.17;;;;;;;16.91;64.44;101635.78;5073623;28;20055;-68
2021/12/09 07:31:19;;;;;;;8.23;1.33;;;;;;;17.09;64.69;101634.94;5071045;28;20036;-67
2021/12/09 07:33:47;;;;;;;9.38;1.67;;;;;;;17.19;64.94;101636.78;5068772;28;20564;-67
2021/12/09 07:36:14;;;;;;;8.75;1.23;;;;;;;17.29;65.15;101643.91;5069389;28;20504;-67
2021/12/09 07:38:45;;;;;;;9.40;1.75;;;;;;;17.44;64.94;101645.72;5070599;28;20400;-68
2021/12/09 07:41:13;;;;;;;10.50;1.40;;;;;;;17.46;64.65;101647.50;5068414;28;20494;-67
2021/12/09 07:43:45;;;;;;;4.97;1.15;;;;;;;17.58;64.25;101649.31;5064951;28;20061;-67
2021/12/09 07:46:13;;;;;;;10.90;2.00;;;;;;;17.64;63.36;101645.78;5062637;28;20048;-67
2021/12/09 07:48:41;;;;;;;9.05;2.08;;;;;;;17.75;63.41;101647.56;5071344;28;20095;-68
2021/12/09 07:51:08;;;;;;;13.30;1.77;;;;;;;17.89;63.47;101653.81;5070208;28;20055;-67
2021/12/09 07:53:36;;;;;;;8.63;1.65;;;;;;;17.99;63.24;101645.75;5065534;28;20099;-69
2021/12/09 07:56:04;;;;;;;5.43;1.35;;;;;;;18.05;62.93;101651.13;5060315;28;20044;-67
2021/12/09 07:58:34;;;;;;;14.45;2.67;;;;;;;18.09;62.58;101651.13;5083220;28;20044;-67
2021/12/09 08:01:04;;;;;;;8.27;1.35;;;;;;;18.22;62.31;101643.97;5065959;28;20040;-67
2021/12/09 08:03:33;;;;;;;9.68;1.90;;;;;;;18.22;62.20;101647.53;5067140;28;20037;-67
2021/12/09 08:06:01;;;;;;;10.43;1.73;;;;;;;18.33;62.79;101650.19;5066167;28;20067;-67
2021/12/09 08:08:28;;;;;;;9.93;1.90;;;;;;;18.43;62.54;101645.72;5067635;28;20041;-67
2021/12/09 08:10:57;;;;;;;10.48;1.45;;;;;;;18.52;62.64;101643.00;5068773;28;20093;-67
2021/12/09 08:13:24;;;;;;;10.65;1.85;;;;;;;18.52;62.07;101654.59;5069343;28;20528;-67
2021/12/09 08:15:54;;;;;;;7.78;1.73;;;;;;;18.59;62.49;101658.16;5049646;28;20052;-67
2021/12/09 08:18:27;;;;;;;6.50;1.27;;;;;;;18.70;62.49;101659.06;5065369;28;20095;-68
2021/12/09 08:20:58;;;;;;;7.70;1.33;;;;;;;18.78;62.27;101654.53;5054749;28;20049;-67
2021/12/09 08:23:27;;;;;;;9.52;2.25;;;;;;;18.78;61.69;101654.53;5069029;28;20098;-68
2021/12/09 08:25:55;;;;;;;7.32;1.25;;;;;;;18.75;61.73;101661.69;5069717;28;20070;-67
2021/12/09 08:28:23;;;;;;;5.90;1.23;;;;;;;18.85;62.25;101661.66;5070422;28;20440;-67
2021/12/09 08:30:52;;;;;;;10.27;1.67;;;;;;;18.86;61.41;101658.09;5070735;28;20047;-67
2021/12/09 08:33:23;;;;;;;11.27;1.48;;;;;;;18.89;61.57;101652.72;5069488;28;20450;-67
2021/12/09 08:35:52;;;;;;;7.22;1.25;;;;;;;18.92;61.65;101649.13;5068058;28;20082;-69
2021/12/09 08:38:21;;;;;;;17.17;2.35;;;;;;;18.98;61.48;101659.81;5070234;28;20041;-67
2021/12/09 08:40:48;;;;;;;6.03;1.40;;;;;;;19.06;61.34;101648.19;5070126;28;20496;-68
2021/12/09 08:43:17;;;;;;;5.55;1.33;;;;;;;19.19;60.95;101656.13;5070029;28;20059;-68
2021/12/09 08:45:44;;;;;;;10.10;1.70;;;;;;;19.16;60.67;101654.38;5068604;28;20449;-68
2021/12/09 08:48:13;;;;;;;10.13;1.67;;;;;;;19.10;60.31;101644.56;5068413;28;20052;-68
2021/12/09 08:50:44;;;;;;;10.23;1.67;;;;;;;19.10;60.56;101641.91;5069684;28;20052;-68
2021/12/09 08:53:14;;;;;;;10.00;1.50;;;;;;;19.14;60.63;101647.25;5069530;28;20667;-67
2021/12/09 08:55:43;;;;;;;10.98;1.88;;;;;;;19.22;60.60;101640.06;5069824;28;20052;-68
2021/12/09 08:58:12;;;;;;;8.93;1.23;;;;;;;19.39;60.81;101633.72;5065878;28;20059;-67
2021/12/09 09:00:40;;;;;;;4.97;1.13;;;;;;;19.44;60.44;101633.66;5068039;28;20119;-67
2021/12/09 09:03:08;;;;;;;10.90;1.98;;;;;;;19.44;60.02;101636.34;5069404;28;20040;-67
2021/12/09 09:05:36;;;;;;;10.18;1.60;;;;;;;19.51;59.54;101632.75;5085088;28;20080;-67
2021/12/09 09:08:07;;;;;;;5.00;1.35;;;;;;;19.46;59.76;101629.22;5069548;28;20102;-67
2021/12/09 09:10:40;;;;;;;12.25;1.90;;;;;;;19.40;60.38;101627.44;5068202;28;20045;-67
2021/12/09 09:13:08;;;;;;;9.65;2.03;;;;;;;19.54;60.83;101610.44;5067086;28;20124;-68
2021/12/09 09:15:36;;;;;;;8.05;1.30;;;;;;;19.52;61.04;101618.47;5067891;28;20037;-67
2021/12/09 09:18:05;;;;;;;7.38;1.38;;;;;;;19.58;61.42;101602.34;5067572;28;20044;-67
2021/12/09 09:20:37;;;;;;;7.18;1.25;;;;;;;19.66;61.52;101603.19;5068259;28;20036;-67
2021/12/09 09:23:08;;;;;;;7.45;1.02;;;;;;;19.71;61.12;101605.81;5067969;28;20575;-67
2021/12/09 09:25:36;;;;;;;5.50;1.02;;;;;;;19.70;60.98;101609.38;5069468;28;20044;-67
2021/12/09 09:28:04;;;;;;;12.50;1.63;;;;;;;19.74;61.03;101611.16;5069389;28;20052;-68
2021/12/09 09:30:36;;;;;;;10.25;1.92;;;;;;;19.78;61.11;101586.09;5068335;28;20049;-69
2021/12/09 09:33:06;;;;;;;16.08;2.13;;;;;;;19.74;61.22;101600.44;5069021;28;20076;-67
2021/12/09 09:35:35;;;;;;;7.93;1.73;;;;;;;19.86;61.49;101595.88;5068956;28;20480;-68
2021/12/09 09:38:03;;;;;;;10.80;1.45;;;;;;;19.92;61.30;101602.06;5068684;28;20094;-68
2021/12/09 09:40:39;;;;;;;10.73;1.35;;;;;;;20.01;61.32;101575.19;5067693;28;20079;-68
2021/12/09 09:43:15;;;;;;;14.95;2.08;;;;;;;19.98;60.80;101576.09;5068780;28;20048;-68
2021/12/09 09:45:43;;;;;;;6.20;1.80;;;;;;;19.86;61.03;101565.50;5067292;28;20044;-69
2021/12/09 09:48:13;;;;;;;7.88;1.40;;;;;;;19.82;61.02;101556.56;5067871;28;20056;-69
2021/12/09 09:50:41;;;;;;;11.63;1.88;;;;;;;19.88;61.69;101550.28;5067634;28;20106;-68
2021/12/09 09:53:09;;;;;;;9.15;1.48;;;;;;;19.83;61.37;101558.34;5069282;28;20041;-68
2021/12/09 09:55:40;;;;;;;11.27;1.73;;;;;;;19.79;62.06;101559.31;5069100;28;20112;-67
2021/12/09 09:58:09;;;;;;;10.93;1.70;;;;;;;19.83;62.02;101557.47;5067230;28;20052;-68
2021/12/09 10:00:37;;;;;;;8.35;1.55;;;;;;;19.95;62.10;101554.69;5083946;28;20040;-68
2021/12/09 10:03:11;;;;;;;7.40;1.65;;;;;;;20.05;61.74;101539.38;5068706;28;20045;-69
2021/12/09 10:05:43;;;;;;;4.93;0.73;;;;;;;19.97;61.81;101542.13;5067311;28;20040;-67
2021/12/09 10:08:12;;;;;;;9.75;1.60;;;;;;;20.06;61.96;101528.66;5070593;28;20641;-68
2021/12/09 10:10:42;;;;;;;5.70;1.17;;;;;;;20.10;61.78;101529.50;5071204;28;20102;-67
2021/12/09 10:13:13;;;;;;;10.75;1.88;;;;;;;20.20;62.15;101534.75;5088005;28;20036;-68
2021/12/09 10:15:44;;;;;;;11.27;2.20;;;;;;;20.33;61.46;101532.84;5072600;28;20033;-67
2021/12/09 10:18:13;;;;;;;5.75;1.88;;;;;;;20.34;61.50;101521.22;5072265;28;20044;-67
2021/12/09 10:20:47;;;;;;;12.75;2.75;;;;;;;20.37;61.17;101526.53;5072710;28;20045;-67
2021/12/09 10:23:38;;;;;;;;;;;;;;;20.39;61.62;101521.16;5073068;28;20047;-68
2021/12/09 10:26:25;;;;;;;13.30;1.42;;;;;;;20.37;61.59;101525.63;5031188;28;20355;-68
2021/12/09 10:29:03;;;;;;;10.25;1.88;;;;;;;20.41;61.07;101517.53;5052343;28;20069;-68
2021/12/09 10:31:36;;;;;;;6.22;1.08;;;;;;;20.36;61.65;101514.00;5052409;28;20033;-67
2021/12/09 10:34:18;;;;;;;7.78;1.27;;;;;;;20.42;62.12;101516.63;5067789;28;20051;-67
2021/12/09 10:36:55;;;;;;;8.30;1.55;;;;;;;20.46;62.06;101522.84;5052280;28;20045;-68
2021/12/09 10:39:34;;;;;;;7.55;1.52;;;;;;;20.52;62.17;101498.63;5053427;28;20124;-67
2021/12/09 10:42:07;;;;;;;10.73;2.28;;;;;;;20.54;62.74;101512.91;5050852;28;20609;-67
2021/12/09 10:44:42;;;;;;;11.23;1.75;;;;;;;20.59;62.70;101498.53;5050411;28;20039;-68
2021/12/09 10:47:15;;;;;;;11.35;1.60;;;;;;;20.49;62.54;101493.28;5053926;28;20133;-67
2021/12/09 10:50:06;;;;;;;10.45;1.80;;;;;;;20.51;62.53;101480.75;5042055;28;20095;-67
2021/12/09 10:52:40;;;;;;;11.90;2.13;;;;;;;20.02;62.52;101483.13;5049590;28;20048;-67
2021/12/09 10:55:12;;;;;;;14.98;2.47;;;;;;;19.70;63.45;101478.09;5048017;28;20041;-67
2021/12/09 10:57:42;;;;;;;12.48;2.10;;;;;;;19.58;63.84;101478.22;5050575;28;20123;-67
2021/12/09 11:00:23;;;;;;;12.85;1.85;;;;;;;19.43;64.29;101479.22;5051088;28;20044;-67
2021/12/09 11:03:12;;;;;;;16.17;2.60;;;;;;;19.50;65.15;101476.50;5071598;28;20148;-68
2021/12/09 11:05:43;;;;;;;9.93;2.10;;;;;;;19.71;65.00;101463.81;5050449;28;20171;-68
2021/12/09 11:08:17;;;;;;;7.28;1.65;;;;;;;19.84;65.02;101468.13;5052478;28;20045;-68
2021/12/09 11:10:47;;;;;;;7.43;1.38;;;;;;;19.97;64.38;101476.91;5031859;28;20113;-68
2021/12/09 11:13:19;;;;;;;11.23;1.70;;;;;;;20.11;64.18;101469.59;5075042;28;20109;-69
2021/12/09 11:15:53;;;;;;;9.45;2.00;;;;;;;20.10;63.36;101473.19;5085072;28;20044;-68
2021/12/09 11:18:32;;;;;;;11.52;2.42;;;;;;;20.15;63.49;101468.69;5068791;28;20062;-68
2021/12/09 11:21:01;;;;;;;10.60;2.85;;;;;;;20.13;62.90;101457.06;5045463;28;20570;-68
2021/12/09 11:23:33;;;;;;;24.42;16.42;;;;;;;20.12;63.04;101461.56;5046573;28;20049;-68
2021/12/09 11:26:33;;;;;;;19.15;8.88;;;;;;;20.22;62.85;101459.63;5031562;28;20042;-68
2021/12/09 11:29:07;;;;;;;17.90;3.88;;;;;;;20.31;60.98;101448.78;5030210;28;20049;-68
2021/12/09 11:31:46;;;;;;;10.55;1.80;;;;;;;20.40;60.54;101446.03;5030335;28;20098;-67
2021/12/09 11:34:18;;;;;;;7.82;1.77;;;;;;;20.40;59.43;101442.47;5037653;28;20048;-67
2021/12/09 11:36:50;;;;;;;10.38;1.58;;;;;;;20.39;58.99;101446.03;5050771;28;20094;-67
2021/12/09 11:39:26;;;;;;;9.07;1.65;;;;;;;20.35;58.17;101447.84;5049075;28;20067;-68